| time (UTC) | temp F | wind direction | speed knots | gust knots | rain 1hr in | rain 24hr in | rain mn in | humidity % | barometer mb |
| 20260510191144 | 72 | 347 | 0.0 | 0.9 | 0.00 | 0.06 | 0.06 | 50 | 1018.1 |
| 20260510190641 | 71 | 3 | 0.0 | 2.6 | 0.00 | 0.06 | 0.06 | 53 | 1018.2 |
| 20260510190138 | 71 | 8 | 0.0 | 0.9 | 0.00 | 0.06 | 0.06 | 55 | 1018.2 |
| 20260510185635 | 71 | 243 | 0.9 | 0.9 | 0.00 | 0.06 | 0.06 | 51 | 1018.0 |
| 20260510185133 | 70 | 126 | 0.9 | 0.9 | 0.00 | 0.06 | 0.06 | 53 | 1018.0 |
| 20260510184629 | 69 | 347 | 0.0 | 1.7 | 0.00 | 0.06 | 0.06 | 51 | 1018.2 |
| 20260510184126 | 70 | 265 | 0.9 | 2.6 | 0.00 | 0.06 | 0.06 | 55 | 1018.0 |
| 20260510183621 | 70 | 34 | 0.0 | 0.9 | 0.00 | 0.06 | 0.06 | 53 | 1018.1 |
| 20260510183116 | 69 | 125 | 0.9 | 0.9 | 0.00 | 0.06 | 0.06 | 56 | 1018.5 |
| 20260510182613 | 70 | 325 | 0.0 | 0.9 | 0.00 | 0.06 | 0.06 | 57 | 1018.4 |
| 20260510182109 | 69 | 212 | 1.7 | 2.6 | 0.00 | 0.06 | 0.06 | 52 | 1018.6 |
| 20260510181606 | 71 | 300 | 0.9 | 0.9 | 0.00 | 0.06 | 0.06 | 50 | 1018.5 |
| 20260510181102 | 71 | 328 | 0.0 | 0.0 | 0.00 | 0.06 | 0.06 | 55 | 1018.3 |
| 20260510180559 | 70 | 315 | 0.9 | 1.7 | 0.00 | 0.06 | 0.06 | 53 | 1018.1 |
| 20260510180056 | 68 | 315 | 0.0 | 1.7 | 0.00 | 0.06 | 0.06 | 53 | 1018.1 |
| 20260510175556 | 68 | 321 | 0.0 | 0.9 | 0.00 | 0.06 | 0.06 | 57 | 1018.1 |
| 20260510175052 | 68 | 193 | 0.9 | 1.7 | 0.00 | 0.06 | 0.06 | 61 | 1018.1 |
| 20260510174551 | 67 | 245 | 0.9 | 0.9 | 0.00 | 0.06 | 0.06 | 62 | 1018.4 |
| 20260510174048 | 67 | 209 | 1.7 | 2.6 | 0.00 | 0.06 | 0.06 | 61 | 1018.3 |
| 20260510173543 | 68 | 192 | 1.7 | 2.6 | 0.00 | 0.06 | 0.06 | 57 | 1018.4 |
| 20260510173040 | 67 | 227 | 0.9 | 2.6 | 0.00 | 0.06 | 0.06 | 57 | 1018.2 |
| 20260510172536 | 67 | 23 | 0.0 | 2.6 | 0.00 | 0.06 | 0.06 | 68 | 1018.2 |
| 20260510172027 | 67 | 207 | 3.5 | 5.2 | 0.00 | 0.06 | 0.06 | 62 | 1018.1 |
| 20260510171523 | 67 | 138 | 1.7 | 2.6 | 0.00 | 0.06 | 0.06 | 63 | 1018.1 |
| 20260510171020 | 69 | 213 | 1.7 | 2.6 | 0.00 | 0.06 | 0.06 | 54 | 1018.0 |
| 20260510170517 | 68 | 240 | 0.9 | 1.7 | 0.00 | 0.06 | 0.06 | 59 | 1018.1 |
| 20260510170013 | 68 | 2 | 0.0 | 1.7 | 0.00 | 0.06 | 0.06 | 64 | 1018.3 |
| 20260510165508 | 67 | 308 | 0.9 | 1.7 | 0.00 | 0.06 | 0.06 | 66 | 1018.4 |
| 20260510165006 | 67 | 341 | 0.0 | 0.0 | 0.00 | 0.06 | 0.06 | 74 | 1018.4 |
| 20260510164502 | 65 | 333 | 0.0 | 1.7 | 0.00 | 0.06 | 0.06 | 76 | 1018.3 |
| 20260510163958 | 65 | 230 | 1.7 | 2.6 | 0.00 | 0.06 | 0.06 | 73 | 1018.3 |
| 20260510163455 | 65 | 346 | 0.0 | 0.9 | 0.00 | 0.06 | 0.06 | 73 | 1018.4 |
| 20260510162949 | 64 | 317 | 0.0 | 0.9 | 0.00 | 0.06 | 0.06 | 82 | 1018.4 |
| 20260510162446 | 63 | 332 | 0.0 | 0.9 | 0.00 | 0.06 | 0.06 | 82 | 1018.5 |
| 20260510161942 | 63 | 295 | 0.0 | 0.9 | 0.00 | 0.06 | 0.06 | 81 | 1018.5 |
| 20260510161438 | 63 | 333 | 0.0 | 1.7 | 0.00 | 0.06 | 0.06 | 76 | 1018.4 |
| 20260510160936 | 64 | 20 | 0.9 | 0.9 | 0.00 | 0.06 | 0.06 | 84 | 1018.4 |
| 20260510160432 | 64 | 0 | 0.0 | 0.0 | 0.00 | 0.06 | 0.06 | 86 | 1018.4 |
| 20260510155925 | 63 | 334 | 0.0 | 0.0 | 0.00 | 0.06 | 0.06 | 87 | 1018.2 |
| 20260510155422 | 62 | 322 | 0.0 | 1.7 | 0.00 | 0.06 | 0.06 | 80 | 1018.2 |
| 20260510154919 | 62 | 354 | 0.0 | 0.0 | 0.00 | 0.06 | 0.06 | 89 | 1018.2 |
| 20260510154415 | 62 | 306 | 0.0 | 0.9 | 0.00 | 0.06 | 0.06 | 86 | 1018.1 |
| 20260510153908 | 61 | 173 | 0.0 | 1.7 | 0.00 | 0.06 | 0.06 | 87 | 1018.1 |
| 20260510153405 | 61 | 8 | 0.0 | 2.6 | 0.00 | 0.06 | 0.06 | 88 | 1018.3 |
| 20260510152901 | 61 | 8 | 0.0 | 0.0 | 0.00 | 0.06 | 0.06 | 90 | 1018.1 |
| 20260510152359 | 61 | 349 | 0.0 | 0.0 | 0.00 | 0.06 | 0.06 | 94 | 1017.7 |
| 20260510151855 | 60 | 345 | 0.0 | 0.0 | 0.00 | 0.06 | 0.06 | 95 | 1017.8 |
| 20260510151353 | 60 | 342 | 0.0 | 0.0 | 0.00 | 0.06 | 0.06 | 93 | 1017.6 |
| 20260510150849 | 60 | 345 | 0.0 | 0.0 | 0.00 | 0.06 | 0.06 | 93 | 1017.5 |
| 20260510150345 | 60 | 349 | 0.0 | 0.0 | 0.00 | 0.06 | 0.06 | 91 | 1017.4 |
| 20260510145841 | 60 | 1 | 0.0 | 0.0 | 0.00 | 0.06 | 0.06 | 95 | 1017.5 |
| 20260510145337 | 60 | 342 | 0.0 | 0.0 | 0.00 | 0.06 | 0.06 | 95 | 1017.3 |
| 20260510144834 | 59 | 282 | 0.9 | 0.9 | 0.00 | 0.06 | 0.06 | 96 | 1017.2 |
| 20260510144331 | 59 | 325 | 0.0 | 0.0 | 0.00 | 0.06 | 0.06 | 98 | 1017.3 |
| 20260510143831 | 59 | 344 | 0.0 | 0.0 | 0.00 | 0.06 | 0.06 | 98 | 1017.2 |
| 20260510143327 | 58 | 338 | 0.0 | 0.0 | 0.00 | 0.06 | 0.06 | 98 | 1017.3 |
| 20260510142824 | 59 | 344 | 0.0 | 0.0 | 0.00 | 0.06 | 0.06 | 99 | 1017.1 |
| 20260510142321 | 58 | 343 | 0.0 | 0.0 | 0.00 | 0.06 | 0.06 | 99 | 1017.0 |
| 20260510141818 | 58 | 341 | 0.0 | 0.0 | 0.00 | 0.06 | 0.06 | 99 | 1017.1 |
| 20260510141316 | 58 | 3 | 0.0 | 0.0 | 0.00 | 0.06 | 0.06 | 99 | 1017.0 |
| 20260510140813 | 58 | 2 | 0.0 | 0.0 | 0.00 | 0.06 | 0.06 | 99 | 1016.7 |
| 20260510140308 | 58 | 4 | 0.0 | 0.0 | 0.05 | 0.06 | 0.06 | 99 | 1016.6 |
| 20260510135801 | 58 | 10 | 0.0 | 0.0 | 0.00 | 0.05 | 0.05 | 98 | 1016.7 |
| 20260510135257 | 58 | 341 | 0.0 | 0.0 | 0.00 | 0.05 | 0.05 | 98 | 1016.8 |
| 20260510134755 | 58 | 345 | 0.0 | 0.9 | 0.00 | 0.05 | 0.05 | 97 | 1017.1 |
| 20260510134252 | 58 | 359 | 0.0 | 0.0 | 0.12 | 0.05 | 0.05 | 96 | 1017.3 |
| 20260510133748 | 59 | 358 | 0.0 | 0.0 | 0.31 | 0.05 | 0.05 | 95 | 1017.2 |
| 20260510133244 | 59 | 358 | 0.0 | 0.0 | 0.19 | 0.03 | 0.03 | 94 | 1016.8 |
| 20260510132740 | 60 | 30 | 0.0 | 0.9 | 0.00 | 0.00 | 0.00 | 90 | 1017.2 |
| 20260510132238 | 60 | 340 | 0.0 | 0.0 | 0.00 | 0.00 | 0.00 | 89 | 1017.3 |
| 20260510131734 | 60 | 344 | 0.0 | 0.9 | 0.00 | 0.00 | 0.00 | 89 | 1016.6 |
| 20260510131233 | 60 | 16 | 0.0 | 0.9 | 0.00 | 0.00 | 0.00 | 87 | 1016.5 |
| 20260510130728 | 59 | 135 | 0.9 | 1.7 | 0.00 | 0.00 | 0.00 | 88 | 1016.6 |
| 20260510130226 | 58 | 39 | 0.0 | 0.9 | 0.00 | 0.00 | 0.00 | 91 | 1016.2 |
| 20260510125722 | 58 | 79 | 0.0 | 0.0 | 0.00 | 0.00 | 0.00 | 91 | 1016.3 |
| 20260510125218 | 57 | 96 | 0.0 | 0.9 | 0.00 | 0.00 | 0.00 | 92 | 1016.5 |
| 20260510124715 | 57 | 52 | 0.0 | 0.9 | 0.00 | 0.00 | 0.00 | 93 | 1016.2 |
| 20260510124213 | 57 | 320 | 0.0 | 0.9 | 0.00 | 0.00 | 0.00 | 95 | 1016.3 |
| 20260510123707 | 57 | 63 | 0.0 | 0.9 | 0.00 | 0.00 | 0.00 | 98 | 1016.2 |
| 20260510123204 | 56 | 333 | 0.0 | 0.0 | 0.00 | 0.00 | 0.00 | 99 | 1016.2 |
| 20260510122700 | 56 | 341 | 0.0 | 0.0 | 0.00 | 0.00 | 0.00 | 99 | 1016.1 |
| 20260510122157 | 56 | 344 | 0.0 | 0.0 | 0.00 | 0.00 | 0.00 | 99 | 1015.9 |
| 20260510121653 | 55 | 344 | 0.0 | 0.0 | 0.00 | 0.00 | 0.00 | 99 | 1016.0 |
| 20260510121150 | 55 | 339 | 0.0 | 0.0 | 0.00 | 0.00 | 0.00 | 99 | 1016.1 |
| 20260510120648 | 55 | 337 | 0.0 | 0.0 | 0.00 | 0.00 | 0.00 | 99 | 1016.1 |
| 20260510120143 | 54 | 350 | 0.0 | 0.0 | 0.00 | 0.00 | 0.00 | 99 | 1016.0 |
| 20260510115640 | 54 | 350 | 0.0 | 0.0 | 0.00 | 0.00 | 0.00 | 99 | 1016.0 |
| 20260510115138 | 54 | 0 | 0.0 | 0.0 | 0.00 | 0.00 | 0.00 | 99 | 1015.9 |
| 20260510114633 | 54 | 0 | 0.0 | 0.0 | 0.00 | 0.00 | 0.00 | 99 | 1016.0 |
| 20260510114130 | 54 | 0 | 0.0 | 0.0 | 0.00 | 0.00 | 0.00 | 99 | 1015.7 |
| 20260510113625 | 53 | 0 | 0.0 | 0.0 | 0.00 | 0.00 | 0.00 | 99 | 1015.4 |
| 20260510113123 | 53 | 0 | 0.0 | 0.0 | 0.00 | 0.00 | 0.00 | 99 | 1015.2 |
| 20260510112619 | 53 | 0 | 0.0 | 0.0 | 0.00 | 0.00 | 0.00 | 99 | 1015.3 |
| 20260510112115 | 53 | 0 | 0.0 | 0.0 | 0.00 | 0.00 | 0.00 | 99 | 1015.2 |
| 20260510111612 | 52 | 0 | 0.0 | 0.0 | 0.00 | 0.00 | 0.00 | 99 | 1015.1 |
| 20260510111102 | 52 | 0 | 0.0 | 0.0 | 0.00 | 0.00 | 0.00 | 99 | 1015.0 |
| 20260510110558 | 52 | 0 | 0.0 | 0.0 | 0.00 | 0.00 | 0.00 | 99 | 1014.8 |
| 20260510110055 | 51 | 0 | 0.0 | 0.0 | 0.00 | 0.00 | 0.00 | 99 | 1014.9 |
| 20260510105550 | 51 | 0 | 0.0 | 0.0 | 0.00 | 0.00 | 0.00 | 99 | 1014.6 |
| 20260510105045 | 51 | 0 | 0.0 | 0.0 | 0.00 | 0.00 | 0.00 | 99 | 1014.5 |
| 20260510104542 | 51 | 0 | 0.0 | 0.0 | 0.00 | 0.00 | 0.00 | 99 | 1014.4 |
| 20260510104038 | 51 | 0 | 0.0 | 0.0 | 0.00 | 0.00 | 0.00 | 99 | 1014.6 |
| 20260510103536 | 51 | 0 | 0.0 | 0.0 | 0.00 | 0.00 | 0.00 | 99 | 1014.4 |
| 20260510103032 | 51 | 0 | 0.0 | 0.0 | 0.00 | 0.00 | 0.00 | 99 | 1014.3 |
| 20260510102527 | 51 | 0 | 0.0 | 0.0 | 0.00 | 0.00 | 0.00 | 99 | 1014.4 |
| 20260510102024 | 51 | 0 | 0.0 | 0.0 | 0.00 | 0.00 | 0.00 | 99 | 1014.4 |
| 20260510101521 | 51 | 0 | 0.0 | 0.0 | 0.00 | 0.00 | 0.00 | 99 | 1014.2 |
| 20260510101020 | 51 | 357 | 0.0 | 0.0 | 0.00 | 0.00 | 0.00 | 99 | 1014.4 |
| 20260510100516 | 51 | 357 | 0.0 | 0.0 | 0.00 | 0.00 | 0.00 | 99 | 1014.1 |
| 20260510100013 | 51 | 357 | 0.0 | 0.0 | 0.00 | 0.00 | 0.00 | 99 | 1013.9 |
| 20260510095508 | 51 | 357 | 0.0 | 0.0 | 0.00 | 0.00 | 0.00 | 99 | 1014.0 |
| 20260510095008 | 51 | 357 | 0.0 | 0.0 | 0.00 | 0.00 | 0.00 | 99 | 1014.0 |
| 20260510094502 | 51 | 357 | 0.0 | 0.0 | 0.00 | 0.00 | 0.00 | 99 | 1014.0 |
| 20260510093958 | 51 | 357 | 0.0 | 0.0 | 0.00 | 0.00 | 0.00 | 99 | 1013.9 |
| 20260510093454 | 51 | 357 | 0.0 | 0.0 | 0.00 | 0.00 | 0.00 | 99 | 1013.6 |
| 20260510092951 | 51 | 357 | 0.0 | 0.0 | 0.00 | 0.00 | 0.00 | 99 | 1013.7 |
| 20260510092448 | 51 | 357 | 0.0 | 0.0 | 0.00 | 0.00 | 0.00 | 99 | 1013.7 |
| 20260510091942 | 51 | 9 | 0.0 | 0.0 | 0.00 | 0.00 | 0.00 | 99 | 1013.5 |
| 20260510091440 | 51 | 9 | 0.0 | 0.0 | 0.00 | 0.00 | 0.00 | 99 | 1013.2 |
| 20260510090936 | 51 | 9 | 0.0 | 0.0 | 0.00 | 0.00 | 0.00 | 99 | 1013.4 |
| 20260510090433 | 51 | 9 | 0.0 | 0.0 | 0.00 | 0.00 | 0.00 | 99 | 1013.1 |
| 20260510085929 | 51 | 9 | 0.0 | 0.0 | 0.00 | 0.00 | 0.00 | 99 | 1013.2 |
| 20260510085424 | 51 | 9 | 0.0 | 0.0 | 0.00 | 0.00 | 0.00 | 99 | 1013.4 |
| 20260510084920 | 51 | 9 | 0.0 | 0.0 | 0.00 | 0.00 | 0.00 | 99 | 1013.3 |
| 20260510084417 | 51 | 11 | 0.0 | 0.0 | 0.00 | 0.00 | 0.00 | 99 | 1013.1 |
| 20260510083914 | 51 | 11 | 0.0 | 0.0 | 0.00 | 0.00 | 0.00 | 99 | 1013.2 |
| 20260510083410 | 51 | 11 | 0.0 | 0.0 | 0.00 | 0.00 | 0.00 | 99 | 1013.3 |
| 20260510082905 | 51 | 15 | 0.0 | 0.0 | 0.00 | 0.00 | 0.00 | 99 | 1013.2 |
| 20260510082404 | 52 | 13 | 0.0 | 0.0 | 0.00 | 0.00 | 0.00 | 99 | 1013.4 |
| 20260510081901 | 52 | 15 | 0.0 | 0.0 | 0.00 | 0.00 | 0.00 | 99 | 1013.2 |
| 20260510081357 | 52 | 15 | 0.0 | 0.0 | 0.00 | 0.00 | 0.00 | 99 | 1013.2 |
| 20260510080855 | 52 | 13 | 0.0 | 0.0 | 0.00 | 0.00 | 0.00 | 99 | 1013.1 |
| 20260510080349 | 52 | 13 | 0.0 | 0.0 | 0.00 | 0.00 | 0.00 | 99 | 1013.1 |
| 20260510075846 | 52 | 28 | 0.0 | 0.0 | 0.00 | 0.00 | 0.00 | 99 | 1013.0 |
| 20260510075344 | 52 | 72 | 0.0 | 0.0 | 0.00 | 0.00 | 0.00 | 99 | 1013.1 |
| 20260510074840 | 52 | 2 | 0.0 | 0.0 | 0.00 | 0.00 | 0.00 | 99 | 1013.3 |
| 20260510074337 | 52 | 352 | 0.0 | 0.0 | 0.00 | 0.00 | 0.00 | 99 | 1013.0 |
| 20260510073834 | 52 | 352 | 0.0 | 0.0 | 0.00 | 0.00 | 0.00 | 99 | 1013.0 |
| 20260510073329 | 52 | 352 | 0.0 | 0.0 | 0.00 | 0.00 | 0.00 | 99 | 1013.3 |
| 20260510072825 | 52 | 355 | 0.0 | 0.0 | 0.00 | 0.00 | 0.00 | 99 | 1012.8 |
| 20260510072322 | 52 | 355 | 0.0 | 0.0 | 0.00 | 0.00 | 0.00 | 99 | 1012.9 |
| 20260510071818 | 52 | 355 | 0.0 | 0.0 | 0.00 | 0.00 | 0.00 | 99 | 1012.9 |
| 20260510071314 | 52 | 355 | 0.0 | 0.0 | 0.00 | 0.00 | 0.00 | 99 | 1013.0 |
| 20260510070814 | 53 | 355 | 0.0 | 0.0 | 0.00 | 0.00 | 0.00 | 99 | 1012.9 |
| 20260510070310 | 53 | 355 | 0.0 | 0.0 | 0.00 | 0.00 | 0.00 | 99 | 1012.8 |
| 20260510065810 | 53 | 355 | 0.0 | 0.0 | 0.00 | 0.00 | 0.00 | 99 | 1012.8 |
| 20260510065307 | 53 | 355 | 0.0 | 0.0 | 0.00 | 0.00 | 0.00 | 99 | 1012.8 |
| 20260510064804 | 53 | 355 | 0.0 | 0.0 | 0.00 | 0.00 | 0.00 | 98 | 1012.9 |
| 20260510064302 | 53 | 355 | 0.0 | 0.0 | 0.00 | 0.00 | 0.00 | 98 | 1012.9 |
| 20260510063757 | 53 | 355 | 0.0 | 0.0 | 0.00 | 0.00 | 0.00 | 98 | 1012.8 |
| 20260510063254 | 53 | 355 | 0.0 | 0.0 | 0.00 | 0.00 | 0.00 | 98 | 1012.8 |
| 20260510062750 | 53 | 355 | 0.0 | 0.0 | 0.00 | 0.00 | 0.00 | 98 | 1012.7 |
| 20260510062246 | 53 | 355 | 0.0 | 0.0 | 0.00 | 0.00 | 0.00 | 98 | 1012.9 |
| 20260510061741 | 53 | 355 | 0.0 | 0.0 | 0.00 | 0.00 | 0.00 | 98 | 1013.0 |
| 20260510061239 | 53 | 355 | 0.0 | 0.0 | 0.00 | 0.00 | 0.00 | 98 | 1012.7 |
| 20260510060735 | 54 | 355 | 0.0 | 0.0 | 0.00 | 0.00 | 0.00 | 98 | 1012.8 |
| 20260510060232 | 54 | 356 | 0.0 | 0.0 | 0.00 | 0.00 | 0.00 | 98 | 1012.9 |
| 20260510055728 | 54 | 344 | 0.0 | 0.9 | 0.00 | 0.00 | 0.00 | 98 | 1012.8 |
| 20260510055227 | 54 | 0 | 0.0 | 0.0 | 0.00 | 0.00 | 0.00 | 98 | 1012.8 |
| 20260510054721 | 54 | 341 | 0.0 | 0.9 | 0.00 | 0.00 | 0.00 | 97 | 1012.7 |
| 20260510054218 | 54 | 359 | 0.0 | 0.0 | 0.00 | 0.00 | 0.00 | 97 | 1012.8 |
| 20260510053717 | 54 | 359 | 0.0 | 0.0 | 0.00 | 0.00 | 0.00 | 97 | 1012.6 |
| 20260510053214 | 54 | 359 | 0.0 | 0.0 | 0.00 | 0.00 | 0.00 | 97 | 1012.6 |
| 20260510052709 | 54 | 355 | 0.0 | 0.0 | 0.00 | 0.00 | 0.00 | 97 | 1012.6 |
| 20260510052206 | 54 | 4 | 0.0 | 0.0 | 0.00 | 0.00 | 0.00 | 97 | 1012.6 |
| 20260510051701 | 54 | 10 | 0.0 | 0.0 | 0.00 | 0.00 | 0.00 | 97 | 1012.7 |
| 20260510051158 | 54 | 11 | 0.0 | 0.0 | 0.00 | 0.00 | 0.00 | 97 | 1012.8 |
| 20260510050656 | 54 | 355 | 0.0 | 0.0 | 0.00 | 0.00 | 0.00 | 96 | 1012.7 |
| 20260510050153 | 54 | 341 | 0.0 | 0.9 | 0.00 | 0.00 | 0.00 | 96 | 1012.6 |
| 20260510045649 | 54 | 357 | 0.0 | 0.0 | 0.00 | 0.00 | 0.00 | 96 | 1012.8 |
| 20260510045146 | 54 | 9 | 0.0 | 0.0 | 0.00 | 0.00 | 0.00 | 96 | 1012.8 |
| 20260510044642 | 54 | 1 | 0.0 | 0.0 | 0.00 | 0.00 | 0.00 | 96 | 1012.7 |
| 20260510044140 | 54 | 357 | 0.0 | 0.0 | 0.00 | 0.00 | 0.00 | 96 | 1012.7 |
| 20260510043635 | 54 | 357 | 0.0 | 0.0 | 0.00 | 0.00 | 0.00 | 95 | 1012.8 |
| 20260510043132 | 54 | 0 | 0.0 | 0.0 | 0.00 | 0.00 | 0.00 | 95 | 1012.9 |
| 20260510042630 | 54 | 0 | 0.0 | 0.0 | 0.00 | 0.00 | 0.00 | 95 | 1012.8 |
| 20260510042125 | 54 | 2 | 0.0 | 0.0 | 0.00 | 0.00 | 0.00 | 95 | 1012.8 |
| 20260510041623 | 54 | 353 | 0.0 | 0.0 | 0.00 | 0.00 | 0.00 | 95 | 1012.9 |
| 20260510041120 | 54 | 347 | 0.0 | 0.0 | 0.00 | 0.00 | 0.00 | 94 | 1012.8 |
| 20260510040617 | 54 | 1 | 0.0 | 0.0 | 0.00 | 0.00 | 0.00 | 94 | 1012.8 |
| 20260510040113 | 54 | 0 | 0.0 | 0.0 | 0.00 | 0.00 | 0.00 | 94 | 1012.6 |
| 20260510035609 | 55 | 358 | 0.0 | 0.0 | 0.00 | 0.21 | 0.21 | 94 | 1012.7 |
| 20260510035109 | 55 | 6 | 0.0 | 0.0 | 0.00 | 0.21 | 0.21 | 94 | 1012.8 |
| 20260510034607 | 55 | 1 | 0.0 | 0.0 | 0.00 | 0.21 | 0.21 | 93 | 1012.8 |
| 20260510034104 | 55 | 348 | 0.0 | 0.0 | 0.00 | 0.21 | 0.21 | 93 | 1012.7 |
| 20260510033600 | 55 | 348 | 0.0 | 0.0 | 0.00 | 0.21 | 0.21 | 93 | 1012.7 |
| 20260510033058 | 55 | 5 | 0.0 | 0.0 | 0.00 | 0.21 | 0.21 | 93 | 1012.7 |
| 20260510032554 | 55 | 359 | 0.0 | 0.0 | 0.00 | 0.21 | 0.21 | 93 | 1012.7 |
| 20260510032050 | 55 | 350 | 0.0 | 0.0 | 0.00 | 0.21 | 0.21 | 93 | 1012.4 |
| 20260510031550 | 55 | 5 | 0.0 | 0.0 | 0.00 | 0.21 | 0.21 | 92 | 1012.4 |
| 20260510031046 | 55 | 355 | 0.0 | 0.0 | 0.00 | 0.21 | 0.21 | 92 | 1012.3 |
| 20260510030541 | 55 | 355 | 0.0 | 0.0 | 0.00 | 0.21 | 0.21 | 92 | 1012.3 |
| 20260510030039 | 55 | 355 | 0.0 | 0.0 | 0.00 | 0.21 | 0.21 | 91 | 1012.3 |
| 20260510025536 | 55 | 353 | 0.0 | 0.0 | 0.00 | 0.21 | 0.21 | 91 | 1012.2 |
| 20260510025034 | 55 | 356 | 0.0 | 0.0 | 0.00 | 0.21 | 0.21 | 91 | 1012.3 |
| 20260510024530 | 55 | 359 | 0.0 | 0.0 | 0.00 | 0.21 | 0.21 | 91 | 1012.2 |
| 20260510024026 | 55 | 351 | 0.0 | 0.0 | 0.00 | 0.21 | 0.21 | 90 | 1012.3 |
| 20260510023522 | 55 | 349 | 0.0 | 0.0 | 0.00 | 0.21 | 0.21 | 90 | 1012.1 |
| 20260510023020 | 56 | 349 | 0.0 | 0.0 | 0.00 | 0.21 | 0.21 | 90 | 1012.1 |
| 20260510022519 | 56 | 349 | 0.0 | 0.0 | 0.00 | 0.21 | 0.21 | 90 | 1012.1 |
| 20260510022014 | 56 | 349 | 0.0 | 0.0 | 0.00 | 0.21 | 0.21 | 90 | 1012.1 |
| 20260510021511 | 56 | 349 | 0.0 | 0.0 | 0.00 | 0.21 | 0.21 | 89 | 1011.9 |
| 20260510021009 | 56 | 349 | 0.0 | 0.0 | 0.00 | 0.21 | 0.21 | 89 | 1012.1 |
| 20260510020503 | 56 | 351 | 0.0 | 0.0 | 0.00 | 0.21 | 0.21 | 89 | 1012.1 |
| 20260510015958 | 57 | 351 | 0.0 | 0.0 | 0.00 | 0.21 | 0.21 | 89 | 1011.7 |
| 20260510015454 | 57 | 351 | 0.0 | 0.0 | 0.00 | 0.21 | 0.21 | 88 | 1011.7 |
| 20260510014949 | 57 | 351 | 0.0 | 0.0 | 0.00 | 0.21 | 0.21 | 88 | 1011.6 |
| 20260510014447 | 57 | 350 | 0.0 | 0.0 | 0.00 | 0.21 | 0.21 | 87 | 1011.5 |
| 20260510013943 | 57 | 350 | 0.0 | 0.0 | 0.00 | 0.21 | 0.21 | 87 | 1011.3 |
| 20260510013432 | 57 | 350 | 0.0 | 0.0 | 0.00 | 0.21 | 0.21 | 87 | 1011.4 |
| 20260510012928 | 58 | 348 | 0.0 | 0.0 | 0.00 | 0.21 | 0.21 | 87 | 1011.3 |
| 20260510012423 | 58 | 348 | 0.0 | 0.0 | 0.00 | 0.21 | 0.21 | 87 | 1011.1 |
| 20260510011918 | 58 | 348 | 0.0 | 0.0 | 0.00 | 0.21 | 0.21 | 86 | 1011.0 |
| 20260510011413 | 58 | 348 | 0.0 | 0.0 | 0.00 | 0.21 | 0.21 | 86 | 1011.0 |
| 20260510010909 | 59 | 348 | 0.0 | 0.0 | 0.00 | 0.21 | 0.21 | 85 | 1010.9 |
| 20260510010407 | 59 | 350 | 0.0 | 0.0 | 0.00 | 0.21 | 0.21 | 85 | 1011.0 |
| 20260510005903 | 59 | 347 | 0.0 | 0.0 | 0.00 | 0.21 | 0.21 | 84 | 1010.9 |
| 20260510005400 | 60 | 349 | 0.0 | 0.0 | 0.00 | 0.21 | 0.21 | 82 | 1010.7 |
| 20260510004857 | 60 | 349 | 0.0 | 0.0 | 0.00 | 0.21 | 0.21 | 83 | 1010.7 |
| 20260510004355 | 60 | 349 | 0.0 | 0.0 | 0.00 | 0.21 | 0.21 | 83 | 1010.8 |
| 20260510003852 | 61 | 349 | 0.0 | 0.0 | 0.00 | 0.21 | 0.21 | 81 | 1010.5 |
| 20260510003349 | 61 | 349 | 0.0 | 0.0 | 0.00 | 0.21 | 0.21 | 81 | 1010.5 |
| 20260510002848 | 62 | 352 | 0.0 | 0.0 | 0.00 | 0.21 | 0.21 | 81 | 1010.2 |
| 20260510002345 | 62 | 347 | 0.0 | 0.0 | 0.00 | 0.21 | 0.21 | 79 | 1010.3 |
| 20260510001842 | 63 | 351 | 0.0 | 0.0 | 0.00 | 0.21 | 0.21 | 79 | 1010.1 |
| 20260510001340 | 64 | 349 | 0.0 | 0.0 | 0.00 | 0.21 | 0.21 | 77 | 1010.2 |
| 20260510000836 | 64 | 339 | 0.0 | 0.0 | 0.00 | 0.21 | 0.21 | 76 | 1010.3 |
| 20260510000333 | 65 | 22 | 0.0 | 0.9 | 0.00 | 0.21 | 0.21 | 71 | 1010.1 |
| 20260509235830 | 66 | 2 | 0.0 | 0.0 | 0.00 | 0.21 | 0.21 | 70 | 1010.1 |
| 20260509235326 | 67 | 348 | 0.0 | 0.0 | 0.00 | 0.21 | 0.21 | 69 | 1010.2 |
| 20260509234822 | 68 | 354 | 0.0 | 0.0 | 0.00 | 0.21 | 0.21 | 65 | 1010.2 |
| 20260509234319 | 69 | 336 | 0.0 | 1.7 | 0.00 | 0.21 | 0.21 | 57 | 1010.0 |
| 20260509233818 | 69 | 9 | 0.9 | 1.7 | 0.00 | 0.21 | 0.21 | 55 | 1009.9 |
| 20260509233315 | 69 | 332 | 0.0 | 1.7 | 0.00 | 0.21 | 0.21 | 62 | 1010.0 |
| 20260509232810 | 70 | 3 | 0.0 | 0.9 | 0.00 | 0.21 | 0.21 | 55 | 1009.9 |
| 20260509232308 | 70 | 357 | 0.0 | 1.7 | 0.00 | 0.21 | 0.21 | 55 | 1009.9 |
| 20260509231804 | 70 | 59 | 0.0 | 2.6 | 0.00 | 0.21 | 0.21 | 54 | 1009.7 |
| 20260509231301 | 70 | 339 | 0.0 | 2.6 | 0.00 | 0.21 | 0.21 | 54 | 1009.8 |
| 20260509230759 | 70 | 351 | 0.0 | 2.6 | 0.00 | 0.21 | 0.21 | 53 | 1010.0 |
| 20260509230256 | 70 | 73 | 0.9 | 2.6 | 0.00 | 0.21 | 0.21 | 54 | 1009.7 |
| 20260509225751 | 71 | 15 | 1.7 | 2.6 | 0.00 | 0.21 | 0.21 | 51 | 1009.7 |
| 20260509225247 | 71 | 14 | 0.0 | 0.9 | 0.00 | 0.21 | 0.21 | 55 | 1009.8 |
| 20260509224743 | 71 | 13 | 0.9 | 5.2 | 0.00 | 0.21 | 0.21 | 54 | 1009.8 |
| 20260509224241 | 71 | 11 | 1.7 | 3.5 | 0.00 | 0.21 | 0.21 | 54 | 1009.8 |
| 20260509223737 | 71 | 355 | 1.7 | 1.7 | 0.00 | 0.21 | 0.21 | 56 | 1009.9 |
| 20260509223235 | 71 | 74 | 0.9 | 2.6 | 0.00 | 0.21 | 0.21 | 53 | 1009.8 |
| 20260509222731 | 71 | 21 | 0.9 | 1.7 | 0.00 | 0.21 | 0.21 | 56 | 1009.9 |
| 20260509222226 | 71 | 29 | 0.0 | 2.6 | 0.00 | 0.21 | 0.21 | 53 | 1009.9 |
| 20260509221722 | 71 | 158 | 1.7 | 2.6 | 0.00 | 0.21 | 0.21 | 53 | 1010.0 |
| 20260509221219 | 71 | 333 | 0.9 | 2.6 | 0.00 | 0.21 | 0.21 | 54 | 1009.9 |
| 20260509220714 | 72 | 256 | 0.0 | 5.2 | 0.00 | 0.21 | 0.21 | 52 | 1010.1 |
| 20260509220211 | 72 | 19 | 0.9 | 0.9 | 0.00 | 0.21 | 0.21 | 56 | 1010.2 |
| 20260509215707 | 71 | 345 | 2.6 | 5.2 | 0.00 | 0.21 | 0.21 | 51 | 1010.1 |
| 20260509215204 | 72 | 11 | 0.0 | 0.9 | 0.00 | 0.21 | 0.21 | 54 | 1010.1 |
| 20260509214701 | 72 | 330 | 0.9 | 2.6 | 0.00 | 0.21 | 0.21 | 51 | 1010.1 |
| 20260509214158 | 72 | 40 | 1.7 | 2.6 | 0.00 | 0.21 | 0.21 | 50 | 1010.4 |
| 20260509213655 | 72 | 35 | 0.9 | 3.5 | 0.00 | 0.21 | 0.21 | 51 | 1010.4 |
| 20260509213150 | 73 | 1 | 2.6 | 5.2 | 0.00 | 0.21 | 0.21 | 52 | 1010.4 |
| 20260509212648 | 72 | 63 | 1.7 | 5.2 | 0.00 | 0.21 | 0.21 | 51 | 1010.2 |
| 20260509212145 | 72 | 353 | 1.7 | 1.7 | 0.00 | 0.21 | 0.21 | 55 | 1010.0 |
| 20260509211641 | 72 | 85 | 1.7 | 3.5 | 0.00 | 0.21 | 0.21 | 51 | 1010.2 |
| 20260509211137 | 72 | 119 | 0.9 | 1.7 | 0.00 | 0.21 | 0.21 | 54 | 1010.3 |
| 20260509210634 | 72 | 47 | 0.0 | 2.6 | 0.00 | 0.21 | 0.21 | 54 | 1010.5 |
| 20260509210131 | 72 | 5 | 1.7 | 2.6 | 0.00 | 0.21 | 0.21 | 52 | 1010.3 |
| 20260509205626 | 72 | 196 | 1.7 | 3.5 | 0.00 | 0.21 | 0.21 | 52 | 1010.0 |
| 20260509205120 | 73 | 19 | 1.7 | 3.5 | 0.00 | 0.21 | 0.21 | 53 | 1010.3 |
| 20260509204618 | 72 | 36 | 2.6 | 5.2 | 0.00 | 0.21 | 0.21 | 52 | 1010.4 |
| 20260509204114 | 72 | 85 | 0.9 | 1.7 | 0.00 | 0.21 | 0.21 | 52 | 1010.4 |
| 20260509203610 | 73 | 333 | 1.7 | 1.7 | 0.00 | 0.21 | 0.21 | 53 | 1010.4 |
| 20260509203109 | 72 | 318 | 0.9 | 1.7 | 0.00 | 0.21 | 0.21 | 54 | 1010.4 |
| 20260509202609 | 71 | 69 | 0.9 | 2.6 | 0.00 | 0.21 | 0.21 | 53 | 1010.5 |
| 20260509202105 | 72 | 122 | 1.7 | 3.5 | 0.00 | 0.21 | 0.21 | 53 | 1010.7 |
| 20260509201604 | 71 | 18 | 0.0 | 0.9 | 0.00 | 0.21 | 0.21 | 56 | 1010.6 |
| 20260509201103 | 71 | 117 | 1.7 | 1.7 | 0.00 | 0.21 | 0.21 | 55 | 1010.6 |
| 20260509200602 | 71 | 55 | 0.0 | 2.6 | 0.00 | 0.21 | 0.21 | 54 | 1010.8 |
| 20260509200059 | 71 | 3 | 0.9 | 3.5 | 0.00 | 0.21 | 0.21 | 55 | 1010.7 |
| 20260509195554 | 71 | 9 | 0.0 | 0.9 | 0.00 | 0.21 | 0.21 | 59 | 1010.9 |
| 20260509195049 | 72 | 156 | 0.9 | 1.7 | 0.00 | 0.21 | 0.21 | 55 | 1010.8 |
| 20260509194544 | 71 | 351 | 1.7 | 3.5 | 0.00 | 0.21 | 0.21 | 56 | 1010.8 |
| 20260509194042 | 71 | 91 | 0.9 | 1.7 | 0.00 | 0.21 | 0.21 | 54 | 1011.1 |
| 20260509193537 | 71 | 23 | 0.9 | 1.7 | 0.00 | 0.21 | 0.21 | 56 | 1011.2 |
| 20260509193034 | 69 | 66 | 0.9 | 1.7 | 0.00 | 0.21 | 0.21 | 57 | 1011.2 |
| 20260509192530 | 70 | 190 | 1.7 | 2.6 | 0.00 | 0.21 | 0.21 | 56 | 1011.3 |
| 20260509192025 | 71 | 132 | 1.7 | 1.7 | 0.00 | 0.21 | 0.21 | 54 | 1011.0 |
| 20260509191520 | 70 | 157 | 0.9 | 2.6 | 0.00 | 0.21 | 0.21 | 55 | 1011.0 |